Time;durP1;ratioP1;P1;durP2;ratioP2;P2;SDS_P1;SDS_P2;PMS_P1;PMS_P2;Temp;Humidity;BMP_temperature;BMP_pressure;BME280_temperature;BME280_humidity;BME280_pressure;Samples;Min_cycle;Max_cycle;Signal;HPM_P1;HPM_P2
2022/12/10 00:01:28;;;;;;;2.33;1.30;;;6.00;44.20;;;;;;5071273;28;20186;-71
2022/12/10 00:03:54;;;;;;;4.68;2.80;;;6.10;43.70;;;;;;5071176;28;20182;-71
2022/12/10 00:06:26;;;;;;;2.58;1.90;;;6.20;43.40;;;;;;5083157;28;20269;-71
2022/12/10 00:08:52;;;;;;;2.42;1.77;;;6.10;43.30;;;;;;5070216;28;20176;-72
2022/12/10 00:11:20;;;;;;;1.70;1.13;;;6.20;43.50;;;;;;5073320;28;20191;-72
2022/12/10 00:13:47;;;;;;;3.20;1.92;;;6.20;43.40;;;;;;5070971;28;20179;-72
2022/12/10 00:16:14;;;;;;;1.80;1.30;;;5.70;45.40;;;;;;5073619;28;20658;-71
2022/12/10 00:18:40;;;;;;;3.08;1.50;;;5.90;45.00;;;;;;5074128;28;20316;-71
2022/12/10 00:21:10;;;;;;;6.03;2.88;;;6.10;44.50;;;;;;5073289;28;20190;-71
2022/12/10 00:23:36;;;;;;;3.40;2.55;;;6.10;44.10;;;;;;5074963;28;20685;-71
2022/12/10 00:26:03;;;;;;;3.65;2.15;;;6.20;43.80;;;;;;5071313;28;20564;-71
2022/12/10 00:28:29;;;;;;;4.75;2.80;;;6.30;43.20;;;;;;5062681;28;20182;-72
2022/12/10 00:30:54;;;;;;;14.77;3.40;;;6.30;43.20;;;;;;5067843;28;20183;-72
2022/12/10 00:33:20;;;;;;;2.10;1.60;;;6.20;43.80;;;;;;5074704;28;20199;-71
2022/12/10 00:35:45;;;;;;;3.83;2.63;;;6.30;44.20;;;;;;5068589;28;21079;-71
2022/12/10 00:38:11;;;;;;;3.60;1.90;;;6.40;43.90;;;;;;5075663;28;20210;-71
2022/12/10 00:40:37;;;;;;;2.30;1.80;;;6.50;43.50;;;;;;5071473;28;20179;-72
2022/12/10 00:43:02;;;;;;;3.83;1.70;;;6.60;42.90;;;;;;5082728;28;20674;-71
2022/12/10 00:45:28;;;;;;;4.03;2.17;;;6.60;43.00;;;;;;5075022;28;20194;-71
2022/12/10 00:47:54;;;;;;;4.17;2.33;;;6.70;42.90;;;;;;5071510;28;20589;-72
2022/12/10 00:50:19;;;;;;;3.50;2.43;;;6.70;42.70;;;;;;5069392;28;20186;-72
2022/12/10 00:52:45;;;;;;;2.10;1.63;;;6.60;42.60;;;;;;5072143;28;20250;-72
2022/12/10 00:55:11;;;;;;;8.63;3.28;;;6.70;42.60;;;;;;5076904;28;20669;-72
2022/12/10 00:57:36;;;;;;;5.20;2.77;;;6.60;42.80;;;;;;5072337;28;20229;-71
2022/12/10 01:00:03;;;;;;;2.23;1.83;;;6.50;42.70;;;;;;5078062;28;20710;-71
2022/12/10 01:02:29;;;;;;;12.07;4.97;;;6.50;42.70;;;;;;5068579;28;20620;-71
2022/12/10 01:04:54;;;;;;;7.00;4.23;;;6.50;42.70;;;;;;5073024;28;20191;-71
2022/12/10 01:07:20;;;;;;;6.70;2.03;;;6.40;43.30;;;;;;5073997;28;20560;-71
2022/12/10 01:09:46;;;;;;;20.73;1.93;;;6.40;43.60;;;;;;5072840;28;20218;-71
2022/12/10 01:12:11;;;;;;;2.00;1.60;;;6.60;42.70;;;;;;5070963;28;20202;-71
2022/12/10 01:14:37;;;;;;;3.70;2.33;;;6.60;42.90;;;;;;5067095;28;20203;-71
2022/12/10 01:17:04;;;;;;;2.50;1.97;;;6.60;42.80;;;;;;5075525;28;20257;-71
2022/12/10 01:19:32;;;;;;;4.07;2.42;;;6.30;43.10;;;;;;5070638;28;20285;-72
2022/12/10 01:21:58;;;;;;;2.42;1.85;;;6.20;44.90;;;;;;5071002;28;20214;-71
2022/12/10 01:24:25;;;;;;;2.27;1.70;;;6.20;43.80;;;;;;5075198;28;20187;-71
2022/12/10 01:26:51;;;;;;;1.77;1.25;;;6.20;44.20;;;;;;5073279;28;20803;-71
2022/12/10 01:29:17;;;;;;;1.80;1.27;;;5.60;45.80;;;;;;5074254;28;20210;-71
2022/12/10 01:31:43;;;;;;;2.10;1.45;;;5.50;47.30;;;;;;5074198;28;20191;-71
2022/12/10 01:34:13;;;;;;;3.23;2.63;;;6.00;45.20;;;;;;5079467;28;20202;-72
2022/12/10 01:36:42;;;;;;;3.28;2.63;;;6.10;44.50;;;;;;5078796;28;20201;-72
2022/12/10 01:39:09;;;;;;;3.22;2.25;;;6.50;43.60;;;;;;5073978;28;20183;-71
2022/12/10 01:41:47;;;;;;;3.35;2.38;;;6.60;42.50;;;;;;5073974;28;20191;-72
2022/12/10 01:44:13;;;;;;;6.32;2.45;;;7.00;41.00;;;;;;5074368;28;20178;-71
2022/12/10 01:46:41;;;;;;;3.00;1.57;;;6.80;41.50;;;;;;5089997;28;20174;-71
2022/12/10 01:49:11;;;;;;;13.15;4.00;;;6.70;42.10;;;;;;5073939;28;20183;-71
2022/12/10 01:51:38;;;;;;;1.95;1.42;;;6.50;42.50;;;;;;5072777;28;20222;-71
2022/12/10 01:54:07;;;;;;;3.10;2.88;;;6.40;43.10;;;;;;5072916;28;20692;-71
2022/12/10 01:56:37;;;;;;;4.80;2.30;;;6.40;43.40;;;;;;5087230;28;20179;-71
2022/12/10 01:59:03;;;;;;;3.08;2.28;;;6.40;43.50;;;;;;5094277;28;20704;-71
2022/12/10 02:01:37;;;;;;;2.47;1.73;;;6.50;44.40;;;;;;5080529;28;20199;-71
2022/12/10 02:04:29;;;;;;;1.83;1.30;;;6.50;43.60;;;;;;5073341;28;20400;-71
2022/12/10 02:07:10;;;;;;;2.42;1.77;;;6.60;43.40;;;;;;5074924;28;20251;-71
2022/12/10 02:10:01;;;;;;;4.03;2.05;;;6.50;43.60;;;;;;5073854;28;20534;-71
2022/12/10 02:13:01;;;;;;;3.22;2.13;;;6.80;43.80;;;;;;5070752;28;20191;-71
2022/12/10 02:15:39;;;;;;;3.00;2.17;;;6.70;43.20;;;;;;5071569;28;20208;-71
2022/12/10 02:18:28;;;;;;;2.10;1.50;;;7.00;42.10;;;;;;5073048;28;20179;-72
2022/12/10 02:21:03;;;;;;;2.00;1.60;;;6.80;42.40;;;;;;5060604;28;20666;-71
2022/12/10 02:23:35;;;;;;;3.47;2.33;;;6.80;42.40;;;;;;5072046;28;20195;-71
2022/12/10 02:26:31;;;;;;;6.65;3.70;;;6.90;42.40;;;;;;5073299;28;20184;-71
2022/12/10 02:29:16;;;;;;;3.10;2.53;;;6.90;43.00;;;;;;5079162;28;20179;-71
2022/12/10 02:32:04;;;;;;;3.72;2.13;;;6.80;42.90;;;;;;5066588;28;20203;-72
2022/12/10 02:34:35;;;;;;;1.83;1.52;;;6.80;42.70;;;;;;5072780;28;20234;-72
2022/12/10 02:37:08;;;;;;;6.03;2.78;;;6.70;42.70;;;;;;5072949;28;20642;-71
2022/12/10 02:39:39;;;;;;;2.50;2.17;;;6.40;44.00;;;;;;5082098;28;20218;-71
2022/12/10 02:42:07;;;;;;;2.47;1.88;;;6.40;44.20;;;;;;5071820;28;20570;-71
2022/12/10 02:44:36;;;;;;;2.80;1.90;;;6.50;44.10;;;;;;5072925;28;20665;-72
2022/12/10 02:47:03;;;;;;;4.72;2.15;;;6.60;43.70;;;;;;5072858;28;20654;-72
2022/12/10 02:49:30;;;;;;;5.72;1.98;;;6.50;43.40;;;;;;5082502;28;20665;-71
2022/12/10 02:51:55;;;;;;;3.75;2.10;;;6.40;44.00;;;;;;5076262;28;20327;-71
2022/12/10 02:54:44;;;;;;;11.23;3.30;;;6.50;43.90;;;;;;5075679;28;20324;-72
2022/12/10 02:57:24;;;;;;;2.90;2.20;;;6.60;43.90;;;;;;5072776;28;20172;-72
2022/12/10 03:00:09;;;;;;;2.20;1.60;;;6.80;43.50;;;;;;5079565;28;20634;-72
2022/12/10 03:02:40;;;;;;;2.40;1.83;;;6.80;43.20;;;;;;5076448;28;20206;-71
2022/12/10 03:05:28;;;;;;;3.35;1.67;;;6.90;42.80;;;;;;5072554;28;20175;-72
2022/12/10 03:08:03;;;;;;;1.80;1.30;;;6.70;43.30;;;;;;5072509;28;20242;-71
2022/12/10 03:11:05;;;;;;;3.25;2.67;;;6.70;43.30;;;;;;5073614;28;20179;-71
2022/12/10 03:13:56;;;;;;;1.70;1.30;;;6.80;43.10;;;;;;5008816;28;20217;-71
2022/12/10 03:16:24;;;;;;;4.35;2.25;;;6.60;44.80;;;;;;5010190;28;20197;-72
2022/12/10 03:18:56;;;;;;;2.88;2.20;;;6.60;43.80;;;;;;5010615;28;20678;-71
2022/12/10 03:21:23;;;;;;;3.45;2.13;;;6.60;44.00;;;;;;4991522;28;20274;-72
2022/12/10 03:23:50;;;;;;;1.88;1.40;;;6.70;44.00;;;;;;5002804;28;20192;-71
2022/12/10 03:26:17;;;;;;;2.35;1.85;;;6.70;44.00;;;;;;5010075;28;20183;-71
2022/12/10 03:28:50;;;;;;;3.45;1.77;;;6.50;44.90;;;;;;5010251;28;20184;-71
2022/12/10 03:31:18;;;;;;;2.45;1.83;;;6.60;44.30;;;;;;5006996;28;20643;-72
2022/12/10 03:33:45;;;;;;;2.30;2.00;;;6.70;43.90;;;;;;4996021;28;20185;-71
2022/12/10 03:36:11;;;;;;;3.10;2.30;;;6.70;43.70;;;;;;5008909;28;20209;-71
2022/12/10 03:38:38;;;;;;;2.42;1.67;;;6.70;43.90;;;;;;5010121;28;20189;-71
2022/12/10 03:41:04;;;;;;;1.95;1.52;;;6.70;43.70;;;;;;5009947;28;20173;-71
2022/12/10 03:43:29;;;;;;;2.60;1.83;;;6.60;43.90;;;;;;4998827;28;20253;-71
2022/12/10 03:45:55;;;;;;;3.40;1.77;;;6.60;44.10;;;;;;5007701;28;20570;-71
2022/12/10 03:48:20;;;;;;;1.90;1.50;;;6.60;43.90;;;;;;5021455;28;20199;-71
2022/12/10 03:50:46;;;;;;;2.93;2.10;;;6.70;43.90;;;;;;5071752;28;20175;-72
2022/12/10 03:53:11;;;;;;;5.43;2.30;;;6.60;43.80;;;;;;5075628;28;20250;-71
2022/12/10 03:55:37;;;;;;;4.20;2.00;;;6.40;44.50;;;;;;5070341;28;20218;-71
2022/12/10 03:58:03;;;;;;;2.33;1.63;;;6.50;44.70;;;;;;5071770;28;20179;-71
2022/12/10 04:00:29;;;;;;;3.70;3.37;;;6.60;44.30;;;;;;5071580;28;20885;-71
2022/12/10 04:02:54;;;;;;;1.67;1.20;;;6.40;44.80;;;;;;5071661;28;20665;-71
2022/12/10 04:05:20;;;;;;;2.27;1.63;;;6.40;45.20;;;;;;5086985;28;20202;-72
2022/12/10 04:07:46;;;;;;;3.03;1.93;;;6.40;44.80;;;;;;5071300;28;20183;-71
2022/12/10 04:10:12;;;;;;;3.20;2.47;;;6.40;44.50;;;;;;5071479;28;20642;-71
2022/12/10 04:12:38;;;;;;;2.10;1.60;;;6.20;45.20;;;;;;5071342;28;20222;-71
2022/12/10 04:17:48;;;;;;;1.70;1.20;;;6.40;44.60;;;;;;5071657;28;20194;-71
2022/12/10 04:28:26;;;;;;;3.97;2.75;;;6.80;43.90;;;;;;5071127;28;20186;-71
2022/12/10 04:30:51;;;;;;;2.23;1.70;;;6.80;43.40;;;;;;5071373;28;20179;-71
2022/12/10 04:33:17;;;;;;;4.67;3.50;;;6.80;43.30;;;;;;5071109;28;20191;-72
2022/12/10 04:35:42;;;;;;;1.93;1.63;;;6.40;44.30;;;;;;5070104;28;20229;-71
2022/12/10 04:38:08;;;;;;;3.13;1.63;;;6.20;45.50;;;;;;5073413;28;20225;-71
2022/12/10 04:40:34;;;;;;;1.70;1.30;;;5.60;46.90;;;;;;5071324;28;20168;-71
2022/12/10 04:42:59;;;;;;;1.70;1.20;;;5.30;48.80;;;;;;5069729;28;20286;-72
2022/12/10 04:45:25;;;;;;;2.40;2.00;;;5.50;48.40;;;;;;5070997;28;20187;-72
2022/12/10 04:47:50;;;;;;;3.23;2.23;;;5.90;47.10;;;;;;5070425;28;20183;-71
2022/12/10 04:50:16;;;;;;;4.00;2.03;;;6.10;46.20;;;;;;5069719;28;20190;-72
2022/12/10 04:52:41;;;;;;;2.67;1.73;;;6.40;46.20;;;;;;5070522;28;20255;-71
2022/12/10 04:55:07;;;;;;;2.53;1.47;;;6.50;44.90;;;;;;5071186;28;20191;-71
2022/12/10 04:57:33;;;;;;;4.18;2.03;;;6.70;43.60;;;;;;5085042;28;20308;-71
2022/12/10 04:59:58;;;;;;;2.00;1.50;;;6.60;43.80;;;;;;5093143;28;20249;-71
2022/12/10 05:02:24;;;;;;;2.10;1.67;;;6.60;43.80;;;;;;5071957;28;20207;-71
2022/12/10 05:04:50;;;;;;;3.90;3.03;;;6.60;43.60;;;;;;5074008;28;20186;-71
2022/12/10 05:07:15;;;;;;;2.40;1.73;;;6.60;43.60;;;;;;5075220;28;20180;-71
2022/12/10 05:09:41;;;;;;;2.07;1.63;;;6.70;43.60;;;;;;5074808;28;20629;-71
2022/12/10 05:12:06;;;;;;;2.73;1.83;;;6.80;43.00;;;;;;5073589;28;20203;-71
2022/12/10 05:14:32;;;;;;;1.90;1.43;;;6.60;43.50;;;;;;5074387;28;20201;-72
2022/12/10 05:16:58;;;;;;;3.43;2.00;;;6.40;44.00;;;;;;5074637;28;20202;-71
2022/12/10 05:19:25;;;;;;;1.80;1.30;;;6.50;44.20;;;;;;5075597;28;20179;-71
2022/12/10 05:24:37;;;;;;;2.30;1.67;;;6.50;44.40;;;;;;5067353;28;20230;-71
2022/12/10 05:27:04;;;;;;;1.70;1.17;;;6.50;43.90;;;;;;5074625;28;20642;-71
2022/12/10 05:29:29;;;;;;;3.55;2.10;;;6.50;44.20;;;;;;5084065;28;20229;-71
2022/12/10 05:31:55;;;;;;;4.40;2.63;;;6.20;44.70;;;;;;5092865;28;20232;-71
2022/12/10 05:34:21;;;;;;;1.67;1.20;;;6.30;45.00;;;;;;5073828;28;20992;-71
2022/12/10 05:36:47;;;;;;;3.90;1.83;;;6.40;44.50;;;;;;5074265;28;20456;-71
2022/12/10 05:39:13;;;;;;;1.90;1.30;;;6.30;44.30;;;;;;5076361;28;20560;-71
2022/12/10 05:41:40;;;;;;;4.93;2.37;;;6.00;45.60;;;;;;5076967;28;20274;-71
2022/12/10 05:44:07;;;;;;;2.83;2.03;;;6.40;44.80;;;;;;5073022;28;20182;-71
2022/12/10 05:46:34;;;;;;;2.83;1.85;;;6.60;44.30;;;;;;5074126;28;20246;-71
2022/12/10 05:49:01;;;;;;;5.85;2.30;;;6.70;43.50;;;;;;5074207;28;20690;-72
2022/12/10 05:51:29;;;;;;;5.95;3.55;;;6.70;43.20;;;;;;5074835;28;20191;-71
2022/12/10 05:53:56;;;;;;;2.78;1.80;;;6.90;43.20;;;;;;5072714;28;20189;-71
2022/12/10 05:56:23;;;;;;;3.08;2.10;;;7.00;42.90;;;;;;5072898;28;20321;-72
2022/12/10 05:58:53;;;;;;;4.32;1.92;;;7.00;42.40;;;;;;5073797;28;20164;-71
2022/12/10 06:01:21;;;;;;;3.63;2.25;;;6.80;43.80;;;;;;5073736;28;20190;-72
2022/12/10 06:03:47;;;;;;;1.70;1.20;;;6.80;43.00;;;;;;5067808;28;20183;-71
2022/12/10 06:06:13;;;;;;;13.02;2.05;;;6.50;43.60;;;;;;5072812;28;20187;-71
2022/12/10 06:08:39;;;;;;;2.00;1.58;;;6.40;44.50;;;;;;5076140;28;20266;-71
2022/12/10 06:11:10;;;;;;;2.77;2.20;;;6.30;44.50;;;;;;5077810;28;20734;-72
2022/12/10 06:13:36;;;;;;;2.83;2.00;;;6.30;44.70;;;;;;5079998;28;20803;-71
2022/12/10 06:16:10;;;;;;;1.90;1.40;;;6.30;44.70;;;;;;5071491;28;20237;-72
2022/12/10 06:18:36;;;;;;;1.90;1.45;;;6.40;44.10;;;;;;5071305;28;20174;-71
2022/12/10 06:21:06;;;;;;;2.58;1.75;;;6.60;43.90;;;;;;5076545;28;20190;-71
2022/12/10 06:23:34;;;;;;;1.90;1.35;;;6.70;43.50;;;;;;5072104;28;20213;-72
2022/12/10 06:26:04;;;;;;;4.95;1.92;;;6.70;43.50;;;;;;5079191;28;20234;-71
2022/12/10 06:28:29;;;;;;;2.00;1.40;;;6.60;43.70;;;;;;5075242;28;20231;-71
2022/12/10 06:30:58;;;;;;;2.43;1.93;;;6.70;43.70;;;;;;5076443;28;20549;-72
2022/12/10 06:33:24;;;;;;;2.50;1.88;;;7.00;42.50;;;;;;5081042;28;20210;-71
2022/12/10 06:35:49;;;;;;;6.13;2.97;;;6.70;43.50;;;;;;5081377;28;20257;-71
2022/12/10 06:38:15;;;;;;;2.80;1.97;;;6.60;43.60;;;;;;5073575;28;20183;-72
2022/12/10 06:40:40;;;;;;;3.80;2.70;;;6.40;44.00;;;;;;5084474;28;20530;-72
2022/12/10 06:43:06;;;;;;;1.70;1.20;;;6.50;44.20;;;;;;5075359;28;20227;-71
2022/12/10 06:45:32;;;;;;;6.53;2.20;;;6.50;44.10;;;;;;5073564;28;20229;-71
2022/12/10 06:47:57;;;;;;;2.47;1.37;;;6.60;43.30;;;;;;5075646;28;20190;-72
2022/12/10 06:50:23;;;;;;;3.60;2.37;;;6.50;44.10;;;;;;5076307;28;20179;-72
2022/12/10 06:52:50;;;;;;;2.27;1.63;;;6.60;43.80;;;;;;5078786;28;20301;-71
2022/12/10 06:55:16;;;;;;;1.80;1.40;;;6.50;43.50;;;;;;5074768;28;20832;-71
2022/12/10 06:57:42;;;;;;;2.10;1.47;;;5.80;46.00;;;;;;5078223;28;20182;-71
2022/12/10 07:00:08;;;;;;;2.00;1.43;;;6.00;46.10;;;;;;5071842;28;20194;-71
2022/12/10 07:02:34;;;;;;;5.22;2.38;;;6.10;46.20;;;;;;5078567;28;20796;-71
2022/12/10 07:05:00;;;;;;;1.80;1.60;;;6.40;45.10;;;;;;5081436;28;20186;-71
2022/12/10 07:07:25;;;;;;;2.57;2.10;;;6.60;44.20;;;;;;5077898;28;20183;-71
2022/12/10 07:09:51;;;;;;;2.77;2.07;;;6.70;43.70;;;;;;5072015;28;20179;-71
2022/12/10 07:12:16;;;;;;;6.07;3.87;;;6.30;44.50;;;;;;5078582;28;20198;-71
2022/12/10 07:14:42;;;;;;;3.10;1.80;;;6.50;43.90;;;;;;5075699;28;20666;-72
2022/12/10 07:17:08;;;;;;;2.00;1.60;;;6.60;43.60;;;;;;5077518;28;20224;-72
2022/12/10 07:19:33;;;;;;;3.40;2.10;;;6.70;43.00;;;;;;5083918;28;20175;-71
2022/12/10 07:21:59;;;;;;;2.27;1.60;;;6.40;43.70;;;;;;5076106;28;20336;-71
2022/12/10 07:24:24;;;;;;;3.67;2.30;;;6.50;43.40;;;;;;5081816;28;20187;-71
2022/12/10 07:26:51;;;;;;;1.80;1.37;;;6.70;42.90;;;;;;5073613;28;20202;-72
2022/12/10 07:29:19;;;;;;;2.10;1.48;;;6.60;43.40;;;;;;5071799;28;20179;-71
2022/12/10 07:31:48;;;;;;;1.90;1.40;;;6.50;42.70;;;;;;5077627;28;20211;-71
2022/12/10 07:34:13;;;;;;;2.50;2.00;;;6.40;43.00;;;;;;5078076;28;20271;-71
2022/12/10 07:36:40;;;;;;;3.70;2.60;;;6.50;43.10;;;;;;5079433;28;20270;-71
2022/12/10 07:39:07;;;;;;;2.22;1.67;;;6.50;43.00;;;;;;5080525;28;20253;-71
2022/12/10 07:41:33;;;;;;;2.97;1.77;;;6.50;42.80;;;;;;5077213;28;20182;-71
2022/12/10 07:43:59;;;;;;;2.20;1.93;;;6.70;42.20;;;;;;5084236;28;20295;-71
2022/12/10 07:46:30;;;;;;;4.30;2.50;;;6.80;42.10;;;;;;5078548;28;20432;-72
2022/12/10 07:48:56;;;;;;;3.67;2.35;;;6.60;42.30;;;;;;5075105;28;20436;-72
2022/12/10 07:51:22;;;;;;;9.97;3.93;;;6.80;42.00;;;;;;5070046;28;20638;-72
2022/12/10 07:53:52;;;;;;;2.35;1.90;;;6.70;41.90;;;;;;5078546;28;20435;-71
2022/12/10 07:56:18;;;;;;;5.50;2.17;;;6.60;42.00;;;;;;5075605;28;20210;-71
2022/12/10 07:58:45;;;;;;;1.80;1.30;;;6.60;41.90;;;;;;5075089;28;20559;-71
2022/12/10 08:01:13;;;;;;;2.03;1.70;;;6.70;42.30;;;;;;5075087;28;20453;-71
2022/12/10 08:03:39;;;;;;;1.70;1.30;;;6.70;41.80;;;;;;5077594;28;20196;-71
2022/12/10 08:06:17;;;;;;;2.78;1.85;;;6.90;40.90;;;;;;5072489;28;20185;-71
2022/12/10 08:08:44;;;;;;;1.83;1.40;;;6.90;41.30;;;;;;5069653;28;20589;-72
2022/12/10 08:11:11;;;;;;;2.40;1.48;;;7.10;40.40;;;;;;5080841;28;20216;-72
2022/12/10 08:13:37;;;;;;;4.90;2.00;;;6.90;40.70;;;;;;5077329;28;20576;-71
2022/12/10 08:16:09;;;;;;;2.05;1.55;;;6.90;41.60;;;;;;5080131;28;20576;-71
2022/12/10 08:18:35;;;;;;;17.67;1.95;;;6.80;40.20;;;;;;5070628;28;20214;-71
2022/12/10 08:21:12;;;;;;;2.20;1.80;;;6.60;41.90;;;;;;5083302;28;20622;-71
2022/12/10 08:23:38;;;;;;;2.20;1.60;;;6.60;41.30;;;;;;5076548;28;20186;-71
2022/12/10 08:26:15;;;;;;;1.80;1.30;;;6.80;41.50;;;;;;5074403;28;20676;-71
2022/12/10 08:28:41;;;;;;;2.33;1.60;;;6.70;41.40;;;;;;5075002;28;20424;-71
2022/12/10 08:31:09;;;;;;;9.30;2.70;;;6.50;41.20;;;;;;5074483;28;20194;-71
2022/12/10 08:33:36;;;;;;;2.25;1.85;;;6.60;41.80;;;;;;5074712;28;20199;-71
2022/12/10 08:36:02;;;;;;;2.53;1.85;;;6.70;41.20;;;;;;5088507;28;20203;-71
2022/12/10 08:38:29;;;;;;;2.10;1.60;;;6.80;41.00;;;;;;5076171;28;20606;-71
2022/12/10 08:40:55;;;;;;;2.58;1.75;;;6.70;40.80;;;;;;5077768;28;20215;-71
2022/12/10 08:43:20;;;;;;;1.90;1.40;;;6.80;41.00;;;;;;5084656;28;20190;-73
2022/12/10 08:45:46;;;;;;;2.73;1.30;;;6.70;40.80;;;;;;5078190;28;20176;-74
2022/12/10 08:48:12;;;;;;;2.20;1.80;;;6.70;41.20;;;;;;5079141;28;20185;-75
2022/12/10 08:50:38;;;;;;;3.07;2.33;;;6.70;41.10;;;;;;5073828;28;20647;-74
2022/12/10 08:53:04;;;;;;;2.58;1.95;;;6.70;40.90;;;;;;5075210;28;20572;-72
2022/12/10 08:55:29;;;;;;;3.43;1.87;;;6.90;40.50;;;;;;5071277;28;20202;-72
2022/12/10 08:57:56;;;;;;;9.10;2.40;;;6.90;40.50;;;;;;5073519;28;20669;-72
2022/12/10 09:00:22;;;;;;;1.60;1.20;;;4.80;38.60;;;;;;5074555;28;20175;-72
2022/12/10 09:02:48;;;;;;;1.70;1.23;;;6.90;39.90;;;;;;5073608;28;20285;-72
2022/12/10 09:05:13;;;;;;;2.10;1.43;;;6.90;39.90;;;;;;5073037;28;20437;-72
2022/12/10 09:07:39;;;;;;;4.23;2.37;;;6.70;40.60;;;;;;5072524;28;20714;-72
2022/12/10 09:10:05;;;;;;;2.50;1.90;;;6.80;40.80;;;;;;5072571;28;20712;-72
2022/12/10 09:12:33;;;;;;;2.07;1.83;;;6.80;40.30;;;;;;5072983;28;20260;-72
2022/12/10 09:14:59;;;;;;;2.15;1.63;;;6.80;40.20;;;;;;5072262;28;20460;-72
2022/12/10 09:17:25;;;;;;;2.38;2.03;;;6.90;40.20;;;;;;5073144;28;20187;-73
2022/12/10 09:19:50;;;;;;;5.40;1.73;;;6.90;40.30;;;;;;5073694;28;20728;-72
2022/12/10 09:22:16;;;;;;;2.43;1.73;;;7.10;39.90;;;;;;5072718;28;20719;-72
2022/12/10 09:24:42;;;;;;;1.80;1.33;;;6.60;40.00;;;;;;5072848;28;20175;-72
2022/12/10 09:27:07;;;;;;;1.97;1.50;;;6.70;40.70;;;;;;5077333;28;20575;-73
2022/12/10 09:29:33;;;;;;;1.80;1.27;;;6.60;40.60;;;;;;5078506;28;20258;-72
2022/12/10 09:31:58;;;;;;;1.90;1.37;;;5.80;42.50;;;;;;5081374;28;20289;-72
2022/12/10 09:34:24;;;;;;;2.37;1.83;;;6.30;42.30;;;;;;5071704;28;20232;-72
2022/12/10 09:36:49;;;;;;;1.80;1.33;;;6.00;41.60;;;;;;5076858;28;20240;-73
2022/12/10 09:39:15;;;;;;;3.40;1.97;;;6.10;42.30;;;;;;5079434;28;20210;-73
2022/12/10 09:41:56;;;;;;;1.70;1.30;;;6.50;41.50;;;;;;5078171;28;20257;-73
2022/12/10 09:44:48;;;;;;;5.60;2.65;;;6.80;40.60;;;;;;5075360;28;20190;-73
2022/12/10 09:47:14;;;;;;;2.03;1.63;;;6.80;40.10;;;;;;5076765;28;20183;-72
2022/12/10 09:49:51;;;;;;;2.00;1.60;;;6.90;40.20;;;;;;5062117;28;20673;-72
2022/12/10 09:52:21;;;;;;;1.80;1.30;;;7.00;39.20;;;;;;5079799;28;20222;-73
2022/12/10 09:55:04;;;;;;;3.28;1.90;;;7.10;39.70;;;;;;5083235;28;20195;-72
2022/12/10 09:57:39;;;;;;;1.60;1.10;;;7.20;39.20;;;;;;5071399;28;20187;-72
2022/12/10 10:00:41;;;;;;;1.70;1.30;;;7.30;39.20;;;;;;5064200;28;20171;-72
2022/12/10 10:03:12;;;;;;;1.90;1.50;;;7.30;38.60;;;;;;5075921;28;20194;-72
2022/12/10 10:05:41;;;;;;;2.30;1.77;;;7.50;38.30;;;;;;5069260;28;20190;-72
2022/12/10 10:08:17;;;;;;;2.97;2.33;;;7.20;39.10;;;;;;5064331;28;20175;-72
2022/12/10 10:10:44;;;;;;;1.70;1.30;;;7.10;39.90;;;;;;5074950;28;20182;-72
2022/12/10 10:13:42;;;;;;;1.80;1.33;;;7.30;39.50;;;;;;5075743;28;20203;-72
2022/12/10 10:16:30;;;;;;;2.45;2.00;;;7.50;38.70;;;;;;5072456;28;20285;-73
2022/12/10 10:19:01;;;;;;;2.92;2.08;;;7.00;40.00;;;;;;5070662;28;20273;-73
2022/12/10 10:21:36;;;;;;;1.90;1.45;;;7.30;38.70;;;;;;5078667;28;20208;-72
2022/12/10 10:24:03;;;;;;;1.90;1.30;;;7.40;38.60;;;;;;5074145;28;20187;-73
2022/12/10 10:26:29;;;;;;;1.70;1.17;;;7.40;39.40;;;;;;5073371;28;20178;-75
2022/12/10 10:29:00;;;;;;;1.70;1.20;;;7.50;38.10;;;;;;5073950;28;20187;-72
2022/12/10 10:31:28;;;;;;;2.90;1.85;;;7.40;38.80;;;;;;5077742;28;20425;-73
2022/12/10 10:34:00;;;;;;;2.35;1.67;;;7.80;38.20;;;;;;5079363;28;20193;-72
2022/12/10 10:36:35;;;;;;;2.45;1.90;;;7.70;38.30;;;;;;5071436;28;20917;-72
2022/12/10 10:39:25;;;;;;;1.70;1.17;;;7.90;38.10;;;;;;5078505;28;20193;-72
2022/12/10 10:41:53;;;;;;;1.80;1.20;;;8.00;37.40;;;;;;5071578;28;20249;-73
2022/12/10 10:44:21;;;;;;;2.10;1.55;;;7.70;37.20;;;;;;5080768;28;20252;-73
2022/12/10 10:46:49;;;;;;;2.00;1.60;;;7.60;38.60;;;;;;5072673;28;20515;-73
2022/12/10 10:49:27;;;;;;;2.45;1.83;;;7.80;38.50;;;;;;5072781;28;20561;-73
2022/12/10 10:51:59;;;;;;;1.70;1.20;;;8.00;36.90;;;;;;5074322;28;20698;-73
2022/12/10 10:54:42;;;;;;;1.77;1.20;;;7.80;37.80;;;;;;5075823;28;20179;-73
2022/12/10 10:57:27;;;;;;;1.88;1.40;;;8.00;38.00;;;;;;5074033;28;20205;-73
2022/12/10 11:00:00;;;;;;;1.80;1.30;;;7.10;38.40;;;;;;5076657;28;20217;-73
2022/12/10 11:02:37;;;;;;;1.88;1.42;;;7.10;38.70;;;;;;5072036;28;20603;-73
2022/12/10 11:05:29;;;;;;;2.03;1.42;;;7.40;38.50;;;;;;5078311;28;20183;-73
2022/12/10 11:08:13;;;;;;;2.58;1.80;;;7.60;38.20;;;;;;5063959;28;20593;-73
2022/12/10 11:10:50;;;;;;;3.05;2.53;;;7.70;37.40;;;;;;5077218;28;20688;-73
2022/12/10 11:13:28;;;;;;;1.85;1.40;;;7.60;36.70;;;;;;5076961;28;20718;-73
2022/12/10 11:16:10;;;;;;;1.90;1.30;;;7.50;37.90;;;;;;5073984;28;20340;-73
2022/12/10 11:18:38;;;;;;;1.80;1.48;;;7.30;36.80;;;;;;5074153;28;20270;-73
2022/12/10 11:21:13;;;;;;;2.33;1.67;;;7.50;37.50;;;;;;5076162;28;20662;-73
2022/12/10 11:23:41;;;;;;;3.17;2.58;;;7.40;37.10;;;;;;5066638;28;20202;-73
2022/12/10 11:26:19;;;;;;;3.85;2.30;;;7.60;37.30;;;;;;5070089;28;20266;-73
2022/12/10 11:29:13;;;;;;;4.15;2.20;;;6.70;37.30;;;;;;5072203;28;20719;-73
2022/12/10 11:32:06;;;;;;;2.90;2.15;;;6.60;39.30;;;;;;5078836;28;20305;-73
2022/12/10 11:34:59;;;;;;;2.22;1.60;;;6.80;38.80;;;;;;5072892;28;20297;-73
2022/12/10 11:37:33;;;;;;;2.35;1.95;;;7.10;38.30;;;;;;5070084;28;20186;-72
2022/12/10 11:40:36;;;;;;;2.70;1.77;;;7.50;37.80;;;;;;5074962;28;20241;-73
2022/12/10 11:43:39;;;;;;;1.80;1.35;;;7.50;37.80;;;;;;5073859;28;20199;-72
2022/12/10 11:46:19;;;;;;;3.67;2.22;;;7.70;37.00;;;;;;5074811;28;20187;-73
2022/12/10 11:49:23;;;;;;;3.25;2.15;;;7.30;36.70;;;;;;5077889;28;20263;-73
2022/12/10 11:52:06;;;;;;;1.80;1.30;;;7.50;37.10;;;;;;5055278;28;20305;-72
2022/12/10 11:54:40;;;;;;;1.95;1.48;;;6.30;38.20;;;;;;5071635;28;20237;-72
2022/12/10 11:57:25;;;;;;;3.10;2.28;;;6.00;40.10;;;;;;5075699;28;20206;-72
2022/12/10 12:00:11;;;;;;;1.70;1.20;;;6.10;39.90;;;;;;5076011;28;20172;-72
2022/12/10 12:03:21;;;;;;;2.78;1.83;;;5.70;40.60;;;;;;5060513;28;20202;-72
2022/12/10 12:06:04;;;;;;;2.15;1.52;;;5.90;41.50;;;;;;4980459;28;20661;-73
2022/12/10 12:08:51;;;;;;;1.70;1.20;;;6.80;38.60;;;;;;4985419;28;20183;-73
2022/12/10 12:11:45;;;;;;;3.35;1.95;;;7.20;37.10;;;;;;4997456;28;20665;-73
2022/12/10 12:14:19;;;;;;;2.10;1.40;;;7.10;35.30;;;;;;4963873;28;20202;-72
2022/12/10 12:17:09;;;;;;;3.50;1.45;;;6.20;38.00;;;;;;4984684;28;20666;-73
2022/12/10 12:19:42;;;;;;;3.58;2.40;;;6.30;38.00;;;;;;4993315;28;20186;-72
2022/12/10 12:22:26;;;;;;;3.00;1.73;;;6.70;37.00;;;;;;4997237;28;20205;-72
2022/12/10 12:25:00;;;;;;;2.05;1.67;;;7.20;36.30;;;;;;5004327;28;20704;-73
2022/12/10 12:27:43;;;;;;;2.55;1.67;;;7.40;35.70;;;;;;5009441;28;20208;-72
2022/12/10 12:30:12;;;;;;;1.80;1.50;;;7.60;34.60;;;;;;5009422;28;20232;-73
2022/12/10 12:33:04;;;;;;;1.80;1.38;;;7.60;32.80;;;;;;4989864;28;20201;-72
2022/12/10 12:35:41;;;;;;;1.80;1.30;;;6.90;34.90;;;;;;4982708;28;20220;-72
2022/12/10 12:38:25;;;;;;;3.17;2.28;;;6.70;35.90;;;;;;5071295;28;20186;-72
2022/12/10 12:41:24;;;;;;;1.77;1.27;;;6.10;36.70;;;;;;5071012;28;20170;-72
2022/12/10 12:44:02;;;;;;;3.95;1.95;;;6.40;37.00;;;;;;5025321;28;20192;-72
2022/12/10 12:46:44;;;;;;;1.80;1.30;;;6.50;36.30;;;;;;5056768;28;20213;-72
2022/12/10 12:49:34;;;;;;;1.70;1.20;;;6.60;35.80;;;;;;5071051;28;20181;-72
2022/12/10 12:52:12;;;;;;;2.45;1.50;;;6.70;34.70;;;;;;5071236;28;20255;-72
2022/12/10 12:54:40;;;;;;;1.70;1.10;;;5.80;34.60;;;;;;5050695;28;20336;-72
2022/12/10 12:57:35;;;;;;;2.00;1.50;;;5.60;35.20;;;;;;5057139;28;20198;-72
2022/12/10 13:00:19;;;;;;;2.00;1.42;;;5.70;34.60;;;;;;5070827;28;20172;-72
2022/12/10 13:03:06;;;;;;;2.03;1.40;;;6.10;34.30;;;;;;5071387;28;20640;-72
2022/12/10 13:05:35;;;;;;;1.70;1.23;;;5.70;35.20;;;;;;5050850;28;20207;-72
2022/12/10 13:08:19;;;;;;;1.90;1.40;;;5.60;36.00;;;;;;5059370;28;20194;-72
2022/12/10 13:10:46;;;;;;;1.60;1.10;;;5.60;36.40;;;;;;5064850;28;20172;-72
2022/12/10 13:13:32;;;;;;;1.80;1.25;;;5.30;37.20;;;;;;5070955;28;20217;-72
2022/12/10 13:16:36;;;;;;;1.90;1.33;;;5.10;37.30;;;;;;5050864;28;20302;-72
2022/12/10 13:19:20;;;;;;;2.20;1.55;;;4.90;38.70;;;;;;5065007;28;20187;-72
2022/12/10 13:22:01;;;;;;;2.75;1.83;;;4.80;39.20;;;;;;5068624;28;20671;-72
2022/12/10 13:24:42;;;;;;;1.70;1.20;;;4.80;39.30;;;;;;5076580;28;20254;-72
2022/12/10 13:27:11;;;;;;;1.70;1.20;;;5.20;37.90;;;;;;5094846;28;20166;-72
2022/12/10 13:29:54;;;;;;;2.25;1.63;;;4.70;38.60;;;;;;5082437;28;20537;-72
2022/12/10 13:32:29;;;;;;;1.80;1.20;;;4.80;39.20;;;;;;5073949;28;20776;-72
2022/12/10 13:35:16;;;;;;;1.80;1.23;;;5.00;38.00;;;;;;5074537;28;20194;-72